createdAt,value
2023-02-06T00:01:30.402Z,12.50
2023-02-06T00:03:58.126Z,12.93
2023-02-06T00:06:25.681Z,12.20
2023-02-06T00:08:53.452Z,12.10
2023-02-06T00:11:22.149Z,13.40
2023-02-06T00:13:50.488Z,13.60
2023-02-06T00:16:22.818Z,12.38
2023-02-06T00:18:51.389Z,12.40
2023-02-06T00:21:22.130Z,13.10
2023-02-06T00:23:50.184Z,12.23
2023-02-06T00:26:18.597Z,12.90
2023-02-06T00:28:47.436Z,13.55
2023-02-06T00:31:15.883Z,12.55
2023-02-06T00:33:43.832Z,13.00
2023-02-06T00:36:11.345Z,12.35
2023-02-06T00:38:38.981Z,13.23
2023-02-06T00:41:08.242Z,12.60
2023-02-06T00:43:35.931Z,12.82
2023-02-06T00:46:03.912Z,12.15
2023-02-06T00:48:31.675Z,11.98
2023-02-06T00:50:59.238Z,12.13
2023-02-06T00:53:26.912Z,11.15
2023-02-06T00:55:54.436Z,11.23
2023-02-06T00:58:22.846Z,10.95
2023-02-06T01:00:50.514Z,11.05
2023-02-06T01:03:18.133Z,10.65
2023-02-06T01:05:45.833Z,10.13
2023-02-06T01:08:13.423Z,10.60
2023-02-06T01:10:42.862Z,10.57
2023-02-06T01:13:11.461Z,10.90
2023-02-06T01:15:41.768Z,11.32
2023-02-06T01:18:09.366Z,10.60
2023-02-06T01:20:37.229Z,12.18
2023-02-06T01:23:04.839Z,10.38
2023-02-06T01:25:32.483Z,10.45
2023-02-06T01:28:00.152Z,10.40
2023-02-06T01:30:28.004Z,10.65
2023-02-06T01:32:57.228Z,10.27
2023-02-06T01:35:24.938Z,10.55
2023-02-06T01:37:52.434Z,11.05
2023-02-06T01:40:20.033Z,11.00
2023-02-06T01:42:49.993Z,11.52
2023-02-06T01:45:26.843Z,11.93
2023-02-06T01:48:06.380Z,10.98
2023-02-06T01:50:36.440Z,11.75
2023-02-06T01:53:06.832Z,12.40
2023-02-06T01:55:38.737Z,12.88
2023-02-06T01:58:08.082Z,12.57
2023-02-06T02:00:36.114Z,13.30
2023-02-06T02:03:04.959Z,13.15
2023-02-06T02:05:33.797Z,13.75
2023-02-06T02:08:08.729Z,13.40
2023-02-06T02:10:36.658Z,12.73
2023-02-06T02:13:04.195Z,14.15
2023-02-06T02:15:48.562Z,13.18
2023-02-06T02:18:30.632Z,13.50
2023-02-06T02:21:00.926Z,15.18
2023-02-06T02:23:46.083Z,14.57
2023-02-06T02:26:37.966Z,12.95
2023-02-06T02:29:17.411Z,12.82
2023-02-06T02:32:00.224Z,13.10
2023-02-06T02:34:55.632Z,12.90
2023-02-06T02:37:35.193Z,13.73
2023-02-06T02:40:21.925Z,13.57
2023-02-06T02:43:19.689Z,12.85
2023-02-06T02:46:21.095Z,13.15
2023-02-06T02:48:55.122Z,12.18
2023-02-06T02:51:23.466Z,13.65
2023-02-06T02:53:51.137Z,13.15
2023-02-06T02:56:22.215Z,12.88
2023-02-06T02:59:04.184Z,13.50
2023-02-06T03:01:37.435Z,12.45
2023-02-06T03:04:16.655Z,13.38
2023-02-06T03:06:59.949Z,12.70
2023-02-06T03:09:31.223Z,11.88
2023-02-06T03:12:20.429Z,13.10
2023-02-06T03:14:58.521Z,12.50
2023-02-06T03:17:38.390Z,12.10
2023-02-06T03:20:09.210Z,12.63
2023-02-06T03:22:37.663Z,13.68
2023-02-06T03:25:12.647Z,12.77
2023-02-06T03:27:43.738Z,12.88
2023-02-06T03:30:14.553Z,13.73
2023-02-06T03:32:46.597Z,13.20
2023-02-06T03:35:26.271Z,14.18
2023-02-06T03:37:54.360Z,14.80
2023-02-06T03:40:22.246Z,14.85
2023-02-06T03:42:53.920Z,14.82
2023-02-06T03:45:36.176Z,16.30
2023-02-06T03:48:09.555Z,15.65
2023-02-06T03:50:40.537Z,14.13
2023-02-06T03:53:10.059Z,14.45
2023-02-06T03:55:40.116Z,14.40
2023-02-06T03:58:12.441Z,14.65
2023-02-06T04:00:43.399Z,14.18
2023-02-06T04:03:13.319Z,13.98
2023-02-06T04:05:41.419Z,14.55
2023-02-06T04:08:09.365Z,14.07
2023-02-06T04:10:36.881Z,13.77
2023-02-06T04:13:04.426Z,13.85
2023-02-06T04:15:32.040Z,13.90
2023-02-06T04:18:01.531Z,13.77
2023-02-06T04:20:30.242Z,14.75
2023-02-06T04:22:59.181Z,14.55
2023-02-06T04:25:26.872Z,11.70
2023-02-06T04:27:54.590Z,12.35
2023-02-06T04:30:22.283Z,11.98
2023-02-06T04:32:49.817Z,11.25
2023-02-06T04:35:17.416Z,11.15
2023-02-06T04:37:44.881Z,11.63
2023-02-06T04:40:12.944Z,10.40
2023-02-06T04:42:40.438Z,10.90
2023-02-06T04:45:08.471Z,10.50
2023-02-06T04:47:36.074Z,9.98
2023-02-06T04:50:04.698Z,11.55
2023-02-06T04:52:32.629Z,10.73
2023-02-06T04:55:00.164Z,11.02
2023-02-06T04:57:27.780Z,10.13
2023-02-06T04:59:55.306Z,10.18
2023-02-06T05:02:22.902Z,10.95
2023-02-06T05:04:50.493Z,10.68
2023-02-06T05:07:18.259Z,10.27
2023-02-06T05:09:46.740Z,9.73
2023-02-06T05:12:14.416Z,10.02
2023-02-06T05:14:42.039Z,9.18
2023-02-06T05:17:09.527Z,9.88
2023-02-06T05:19:37.052Z,10.18
2023-02-06T05:22:04.793Z,10.07
2023-02-06T05:24:32.429Z,10.05
2023-02-06T05:27:00.007Z,10.02
2023-02-06T05:29:27.781Z,10.82
2023-02-06T05:31:55.340Z,9.95
2023-02-06T05:34:22.890Z,10.15
2023-02-06T05:36:50.405Z,10.52
2023-02-06T05:39:17.930Z,10.70
2023-02-06T05:41:45.546Z,11.00
2023-02-06T05:44:13.056Z,10.75
2023-02-06T05:46:40.709Z,10.30
2023-02-06T05:49:08.342Z,10.48
2023-02-06T05:51:36.254Z,11.10
2023-02-06T05:54:03.954Z,11.57
2023-02-06T05:56:31.523Z,11.10
2023-02-06T05:58:59.348Z,10.70
2023-02-06T06:01:28.843Z,11.73
2023-02-06T06:03:56.807Z,11.35
2023-02-06T06:06:24.372Z,11.10
2023-02-06T06:08:52.070Z,10.65
2023-02-06T06:11:19.942Z,11.05
2023-02-06T06:13:47.446Z,11.40
2023-02-06T06:16:15.157Z,11.88
2023-02-06T06:18:42.811Z,11.88
2023-02-06T06:21:10.463Z,12.55
2023-02-06T06:23:41.109Z,12.82
2023-02-06T06:26:08.780Z,12.00
2023-02-06T06:28:38.847Z,11.98
2023-02-06T06:31:13.083Z,12.60
2023-02-06T06:33:41.575Z,13.02
2023-02-06T06:36:12.896Z,12.90
2023-02-06T06:38:41.903Z,12.23
2023-02-06T06:41:09.595Z,13.25
2023-02-06T06:43:37.560Z,13.65
2023-02-06T06:46:05.552Z,12.68
2023-02-06T06:48:33.263Z,13.60
2023-02-06T06:51:00.756Z,13.43
2023-02-06T06:53:28.850Z,13.27
2023-02-06T06:55:56.451Z,13.32
2023-02-06T06:58:24.081Z,13.32
2023-02-06T07:00:53.913Z,12.60
2023-02-06T07:03:21.612Z,13.15
2023-02-06T07:05:49.972Z,12.73
2023-02-06T07:08:18.312Z,13.65
2023-02-06T07:10:45.960Z,12.60
2023-02-06T07:13:13.527Z,12.50
2023-02-06T07:18:14.713Z,12.02
2023-02-06T07:20:42.354Z,13.68
2023-02-06T07:23:09.890Z,13.45
2023-02-06T07:25:37.634Z,13.10
2023-02-06T07:28:09.307Z,12.02
2023-02-06T07:30:36.875Z,12.50
2023-02-06T07:33:11.260Z,12.00
2023-02-06T07:35:43.304Z,11.65
2023-02-06T07:39:01.211Z,12.18
2023-02-06T07:41:54.053Z,11.57
2023-02-06T07:45:09.422Z,11.23
2023-02-06T07:50:04.567Z,11.48
2023-02-06T07:52:53.081Z,12.25
2023-02-06T07:55:20.559Z,11.52
2023-02-06T08:02:05.549Z,11.80
2023-02-06T08:05:54.533Z,11.00
2023-02-06T08:08:18.377Z,10.70
2023-02-06T08:10:49.918Z,11.27
2023-02-06T08:13:17.837Z,11.57
2023-02-06T08:15:46.650Z,11.40
2023-02-06T08:18:17.723Z,11.75
2023-02-06T08:20:47.534Z,11.32
2023-02-06T08:23:20.949Z,12.20
2023-02-06T08:28:31.869Z,11.93
2023-02-06T08:30:59.521Z,12.60
2023-02-06T08:33:27.162Z,12.05
2023-02-06T08:35:54.819Z,11.45
2023-02-06T08:38:22.449Z,12.68
2023-02-06T08:40:50.024Z,11.88
2023-02-06T08:43:17.611Z,12.55
2023-02-06T08:45:49.911Z,12.15
2023-02-06T08:48:17.833Z,12.93
2023-02-06T08:50:47.996Z,12.40
2023-02-06T08:53:15.593Z,12.63
2023-02-06T08:55:43.254Z,11.93
2023-02-06T08:58:10.938Z,11.73
2023-02-06T09:00:38.865Z,12.48
2023-02-06T09:03:06.410Z,12.10
2023-02-06T09:05:34.725Z,11.90
2023-02-06T09:08:02.489Z,11.98
2023-02-06T09:10:30.017Z,12.52
2023-02-06T09:12:58.028Z,12.43
2023-02-06T09:15:25.809Z,12.55
2023-02-06T09:17:53.426Z,12.30
2023-02-06T09:20:21.462Z,12.07
2023-02-06T09:22:49.184Z,12.10
2023-02-06T09:25:16.767Z,12.57
2023-02-06T09:27:47.014Z,13.00
2023-02-06T09:30:15.519Z,13.15
2023-02-06T09:32:43.670Z,13.25
2023-02-06T09:35:11.208Z,13.57
2023-02-06T09:37:38.936Z,12.05
2023-02-06T09:40:07.127Z,12.63
2023-02-06T09:42:38.282Z,13.05
2023-02-06T09:45:20.123Z,13.65
2023-02-06T09:47:55.609Z,13.38
2023-02-06T09:50:44.985Z,13.23
2023-02-06T09:53:31.501Z,13.20
2023-02-06T09:56:13.144Z,13.57
2023-02-06T09:58:59.083Z,13.63
2023-02-06T10:01:32.323Z,12.88
2023-02-06T10:04:34.804Z,14.20
2023-02-06T10:07:31.553Z,13.77
2023-02-06T10:10:11.634Z,13.90
2023-02-06T10:12:56.208Z,14.23
2023-02-06T10:15:36.489Z,14.77
2023-02-06T10:18:15.368Z,14.30
2023-02-06T10:20:54.154Z,14.02
2023-02-06T10:23:26.511Z,14.30
2023-02-06T10:26:18.674Z,13.05
2023-02-06T10:28:56.409Z,12.63
2023-02-06T10:31:26.851Z,13.02
2023-02-06T10:34:06.683Z,13.18
2023-02-06T10:37:11.732Z,13.07
2023-02-06T10:40:08.352Z,13.40
2023-02-06T10:42:57.638Z,12.65
2023-02-06T10:46:03.656Z,13.00
2023-02-06T10:48:39.749Z,13.20
2023-02-06T10:51:20.290Z,12.95
2023-02-06T10:53:52.316Z,12.70
2023-02-06T10:56:26.952Z,13.10
2023-02-06T10:59:40.251Z,12.60
2023-02-06T11:02:12.163Z,13.00
2023-02-06T11:04:42.922Z,13.38
2023-02-06T11:07:28.908Z,12.75
2023-02-06T11:09:57.009Z,12.38
2023-02-06T11:12:27.296Z,11.93
2023-02-06T11:14:57.907Z,11.68
2023-02-06T11:17:28.689Z,11.23
2023-02-06T11:20:03.438Z,11.82
2023-02-06T11:22:38.879Z,10.10
2023-02-06T11:25:36.903Z,10.82
2023-02-06T11:28:14.217Z,10.13
2023-02-06T11:30:53.754Z,9.70
2023-02-06T11:33:49.355Z,8.85
2023-02-06T11:36:38.889Z,9.60
2023-02-06T11:39:21.567Z,9.50
2023-02-06T11:46:17.632Z,8.80
2023-02-06T11:48:57.297Z,8.45
2023-02-06T11:51:26.640Z,8.60
2023-02-06T11:54:00.361Z,8.32
2023-02-06T11:56:29.438Z,7.38
2023-02-06T11:59:15.625Z,8.05
2023-02-06T12:01:49.331Z,7.93
2023-02-06T12:04:39.475Z,7.30
2023-02-06T12:07:25.462Z,6.82
2023-02-06T12:09:52.964Z,8.13
2023-02-06T12:12:31.410Z,7.30
2023-02-06T12:15:29.524Z,8.00
2023-02-06T12:18:01.154Z,8.13
2023-02-06T12:20:35.362Z,7.38
2023-02-06T12:23:25.104Z,8.30
2023-02-06T12:25:58.224Z,8.65
2023-02-06T12:28:36.620Z,8.95
2023-02-06T12:31:23.652Z,8.70
2023-02-06T12:33:55.349Z,8.07
2023-02-06T12:36:28.237Z,10.18
2023-02-06T12:39:04.783Z,9.43
2023-02-06T12:41:56.934Z,9.20
2023-02-06T12:44:53.558Z,9.32
2023-02-06T12:47:39.288Z,8.95
2023-02-06T12:50:19.615Z,8.57
2023-02-06T12:53:10.829Z,8.88
2023-02-06T12:56:20.791Z,8.80
2023-02-06T12:59:06.888Z,8.93
2023-02-06T13:02:26.282Z,10.93
2023-02-06T13:04:55.217Z,10.55
2023-02-06T13:07:25.982Z,13.52
2023-02-06T13:10:01.535Z,9.52
2023-02-06T13:12:32.696Z,9.77
2023-02-06T13:15:21.444Z,9.30
2023-02-06T13:17:50.955Z,9.00
2023-02-06T13:20:21.386Z,9.38
2023-02-06T13:22:52.097Z,9.32
2023-02-06T13:25:25.617Z,9.43
2023-02-06T13:27:55.045Z,10.60
2023-02-06T13:30:34.465Z,12.10
2023-02-06T13:33:17.196Z,10.52
2023-02-06T13:36:10.049Z,10.43
2023-02-06T13:38:40.947Z,9.90
2023-02-06T13:41:18.720Z,9.15
2023-02-06T13:44:02.084Z,9.82
2023-02-06T13:46:48.057Z,9.70
2023-02-06T13:49:53.431Z,9.23
2023-02-06T13:52:48.134Z,8.70
2023-02-06T13:55:32.626Z,9.35
2023-02-06T13:58:24.869Z,8.20
2023-02-06T14:00:55.229Z,8.65
2023-02-06T14:03:29.926Z,8.15
2023-02-06T14:06:19.287Z,7.80
2023-02-06T14:08:47.965Z,7.38
2023-02-06T14:11:33.900Z,7.55
2023-02-06T14:14:28.750Z,8.02
2023-02-06T14:17:22.923Z,8.20
2023-02-06T14:20:18.238Z,6.88
2023-02-06T14:23:21.298Z,6.82
2023-02-06T14:26:01.467Z,6.40
2023-02-06T14:29:04.088Z,6.13
2023-02-06T14:34:23.488Z,7.35
2023-02-06T14:37:20.946Z,6.57
2023-02-06T14:39:54.607Z,6.95
2023-02-06T14:42:32.086Z,8.95
2023-02-06T14:45:07.957Z,7.60
2023-02-06T14:47:42.702Z,7.63
2023-02-06T14:50:21.499Z,7.28
2023-02-06T14:52:58.642Z,7.45
2023-02-06T14:55:46.875Z,9.30
2023-02-06T14:58:28.139Z,8.60
2023-02-06T15:01:11.614Z,8.85
2023-02-06T15:03:40.491Z,8.00
2023-02-06T15:06:11.581Z,8.77
2023-02-06T15:08:47.159Z,9.20
2023-02-06T15:11:26.144Z,9.40
2023-02-06T15:13:56.575Z,9.15
2023-02-06T15:16:24.509Z,10.18
2023-02-06T15:19:28.381Z,9.93
2023-02-06T15:22:05.465Z,10.02
2023-02-06T15:24:56.626Z,10.30
2023-02-06T15:27:35.032Z,11.18
2023-02-06T15:30:15.685Z,10.98
2023-02-06T15:32:50.308Z,11.23
2023-02-06T15:35:45.041Z,11.38
2023-02-06T15:38:15.853Z,10.60
2023-02-06T15:40:49.623Z,11.05
2023-02-06T15:43:26.250Z,10.63
2023-02-06T15:45:58.006Z,11.48
2023-02-06T15:48:34.179Z,11.13
2023-02-06T15:51:26.150Z,10.68
2023-02-06T15:54:18.267Z,12.45
2023-02-06T15:56:55.062Z,12.57
2023-02-06T15:59:25.778Z,13.32
2023-02-06T16:01:56.562Z,13.15
2023-02-06T16:04:32.655Z,13.38
2023-02-06T16:07:07.192Z,13.27
2023-02-06T16:09:57.242Z,11.95
2023-02-06T16:12:25.163Z,13.20
2023-02-06T16:14:57.991Z,13.02
2023-02-06T16:17:36.873Z,12.73
2023-02-06T16:20:46.827Z,12.48
2023-02-06T16:23:20.396Z,12.30
2023-02-06T16:26:00.212Z,12.27
2023-02-06T16:28:29.174Z,13.15
2023-02-06T16:31:03.463Z,11.23
2023-02-06T16:33:41.128Z,12.30
2023-02-06T16:36:14.276Z,12.60
2023-02-06T16:38:48.265Z,13.13
2023-02-06T16:41:26.172Z,11.02
2023-02-06T16:43:54.880Z,12.30
2023-02-06T16:46:22.501Z,12.60
2023-02-06T16:48:50.341Z,11.60
2023-02-06T16:51:20.743Z,11.55
2023-02-06T16:53:49.427Z,12.18
2023-02-06T16:56:18.305Z,11.13
2023-02-06T16:58:46.320Z,11.18
2023-02-06T17:01:25.889Z,11.20
2023-02-06T17:03:54.127Z,10.00
2023-02-06T17:06:32.633Z,10.75
2023-02-06T17:09:04.818Z,10.20
2023-02-06T17:11:32.878Z,11.40
2023-02-06T17:14:00.682Z,10.48
2023-02-06T17:16:31.329Z,10.30
2023-02-06T17:18:58.983Z,10.10
2023-02-06T17:21:28.644Z,9.05
2023-02-06T17:23:56.269Z,9.95
2023-02-06T17:26:24.062Z,9.52
2023-02-06T17:28:52.169Z,9.35
2023-02-06T17:31:19.878Z,9.73
2023-02-06T17:33:47.887Z,8.55
2023-02-06T17:36:29.574Z,8.45
2023-02-06T17:39:01.766Z,8.88
2023-02-06T17:41:31.056Z,8.20
2023-02-06T17:43:58.737Z,8.60
2023-02-06T17:46:26.290Z,8.48
2023-02-06T17:49:04.032Z,9.30
2023-02-06T17:51:32.409Z,8.60
2023-02-06T17:54:25.839Z,8.68
2023-02-06T17:57:06.958Z,7.88
2023-02-06T17:59:35.606Z,7.95
2023-02-06T18:02:03.346Z,8.05
2023-02-06T18:04:31.024Z,7.50
2023-02-06T18:06:58.664Z,7.20
2023-02-06T18:09:27.620Z,8.35
2023-02-06T18:11:55.285Z,7.20
2023-02-06T18:14:22.804Z,7.93
2023-02-06T18:16:50.449Z,7.68
2023-02-06T18:19:24.140Z,7.32
2023-02-06T18:21:52.220Z,7.13
2023-02-06T18:24:19.777Z,7.75
2023-02-06T18:26:47.548Z,7.70
2023-02-06T18:29:15.148Z,7.03
2023-02-06T18:31:42.733Z,6.97
2023-02-06T18:34:11.355Z,6.75
2023-02-06T18:36:39.319Z,6.88
2023-02-06T18:39:07.284Z,6.50
2023-02-06T18:41:53.180Z,6.70
2023-02-06T18:44:20.988Z,7.45
2023-02-06T18:46:48.645Z,7.00
2023-02-06T18:49:16.602Z,6.68
2023-02-06T18:51:47.162Z,6.93
2023-02-06T18:54:14.778Z,6.53
2023-02-06T18:56:42.441Z,6.80
2023-02-06T18:59:10.215Z,6.68
2023-02-06T19:01:37.696Z,6.85
2023-02-06T19:04:05.381Z,7.10
2023-02-06T19:06:35.909Z,5.95
2023-02-06T19:09:07.371Z,6.70
2023-02-06T19:11:38.654Z,6.93
2023-02-06T19:14:07.980Z,6.57
2023-02-06T19:16:38.716Z,6.72
2023-02-06T19:19:09.561Z,6.75
2023-02-06T19:21:37.522Z,6.60
2023-02-06T19:24:06.290Z,6.18
2023-02-06T19:26:34.433Z,6.70
2023-02-06T19:29:02.134Z,6.57
2023-02-06T19:31:29.704Z,6.97
2023-02-06T19:34:00.658Z,5.65
2023-02-06T19:36:30.513Z,6.55
2023-02-06T19:39:01.049Z,6.22
2023-02-06T19:41:31.580Z,6.53
2023-02-06T19:44:03.565Z,6.88
2023-02-06T19:46:31.272Z,6.45
2023-02-06T19:48:58.888Z,6.88
2023-02-06T19:51:30.644Z,6.90
2023-02-06T19:53:59.580Z,7.68
2023-02-06T19:56:34.899Z,7.15
2023-02-06T19:59:10.214Z,7.07
2023-02-06T20:01:37.781Z,6.90
2023-02-06T20:04:18.894Z,6.88
2023-02-06T20:06:47.730Z,6.90
2023-02-06T20:09:16.101Z,7.18
2023-02-06T20:11:43.671Z,8.15
2023-02-06T20:14:12.609Z,6.75
2023-02-06T20:16:41.886Z,6.65
2023-02-06T20:19:13.551Z,7.30
2023-02-06T20:21:43.676Z,6.45
2023-02-06T20:24:22.339Z,6.72
2023-02-06T20:26:55.641Z,6.65
2023-02-06T20:29:26.822Z,6.72
2023-02-06T20:31:55.243Z,6.93
2023-02-06T20:34:23.696Z,6.78
2023-02-06T20:36:52.011Z,6.90
2023-02-06T20:39:20.351Z,7.07
2023-02-06T20:41:49.841Z,7.03
2023-02-06T20:44:18.406Z,6.55
2023-02-06T20:46:47.000Z,7.10
2023-02-06T20:49:21.159Z,6.88
2023-02-06T20:51:49.769Z,7.60
2023-02-06T20:54:18.730Z,7.55
2023-02-06T20:56:46.595Z,7.90
2023-02-06T20:59:16.617Z,7.30
2023-02-06T21:01:44.779Z,7.35
2023-02-06T21:04:14.878Z,7.03
2023-02-06T21:06:43.399Z,7.63
2023-02-06T21:09:11.704Z,7.28
2023-02-06T21:11:46.111Z,7.50
2023-02-06T21:14:14.721Z,7.82
2023-02-06T21:16:44.046Z,7.03
2023-02-06T21:19:14.668Z,7.15
2023-02-06T21:21:45.887Z,6.75
2023-02-06T21:24:14.412Z,6.50
2023-02-06T21:26:42.183Z,7.40
2023-02-06T21:29:11.046Z,7.90
2023-02-06T21:31:39.142Z,7.35
2023-02-06T21:34:10.033Z,7.13
2023-02-06T21:36:39.554Z,6.70
2023-02-06T21:39:07.871Z,6.90
2023-02-06T21:41:37.107Z,7.45
2023-02-06T21:44:05.072Z,7.75
2023-02-06T21:46:33.690Z,8.43
2023-02-06T21:49:01.462Z,7.63
2023-02-06T21:51:29.220Z,8.27
2023-02-06T21:53:57.282Z,7.20
2023-02-06T21:56:29.220Z,7.90
2023-02-06T21:58:57.919Z,7.30
2023-02-06T22:01:30.870Z,7.25
2023-02-06T22:03:58.614Z,7.60
2023-02-06T22:06:27.394Z,6.97
2023-02-06T22:08:56.869Z,7.68
2023-02-06T22:11:28.317Z,7.43
2023-02-06T22:14:01.218Z,6.60
2023-02-06T22:16:29.581Z,6.90
2023-02-06T22:18:57.757Z,6.53
2023-02-06T22:21:27.296Z,7.35
2023-02-06T22:23:58.573Z,7.13
2023-02-06T22:26:27.456Z,6.55
2023-02-06T22:28:55.181Z,7.50
2023-02-06T22:31:25.496Z,6.93
2023-02-06T22:33:53.449Z,6.90
2023-02-06T22:36:24.583Z,6.70
2023-02-06T22:39:06.764Z,6.85
2023-02-06T22:41:35.955Z,6.70
2023-02-06T22:44:03.600Z,6.50
2023-02-06T22:46:34.869Z,7.78
2023-02-06T22:49:02.716Z,6.68
2023-02-06T22:51:30.614Z,6.53
2023-02-06T22:53:58.186Z,6.70
2023-02-06T22:56:37.580Z,7.13
2023-02-06T22:59:10.762Z,6.55
2023-02-06T23:01:45.401Z,7.00
2023-02-06T23:04:16.051Z,7.65
2023-02-06T23:06:44.060Z,7.22
2023-02-06T23:09:24.606Z,7.07
2023-02-06T23:11:52.964Z,7.15
2023-02-06T23:14:21.210Z,7.90
2023-02-06T23:16:49.101Z,7.68
2023-02-06T23:19:17.744Z,8.27
2023-02-06T23:21:47.932Z,7.28
2023-02-06T23:24:16.475Z,6.70
2023-02-06T23:26:46.226Z,7.25
2023-02-06T23:29:17.629Z,6.95
2023-02-06T23:31:47.276Z,7.10
2023-02-06T23:34:15.906Z,7.50
2023-02-06T23:36:45.591Z,7.30
2023-02-06T23:39:13.474Z,7.30
2023-02-06T23:41:41.148Z,8.05
2023-02-06T23:44:10.647Z,6.95
2023-02-06T23:46:39.977Z,8.48
2023-02-06T23:49:08.568Z,7.97
2023-02-06T23:51:38.252Z,7.95
2023-02-06T23:54:07.788Z,8.05
2023-02-06T23:56:35.845Z,9.05
2023-02-06T23:59:05.488Z,8.30
